Time;durP1;ratioP1;P1;durP2;ratioP2;P2;SDS_P1;SDS_P2;PMS_P1;PMS_P2;Temp;Humidity;BMP_temperature;BMP_pressure;BME280_temperature;BME280_humidity;BME280_pressure;Samples;Min_cycle;Max_cycle;Signal;HPM_P1;HPM_P2
2021/05/25 00:00:09;;;;;;;3.42;1.80;;;;;;;16.60;64.41;99647.00;4472872;32;32860;-82
2021/05/25 00:02:39;;;;;;;3.33;1.83;;;;;;;16.67;64.06;99595.94;4489073;31;35086;-83
2021/05/25 00:05:09;;;;;;;2.12;1.70;;;;;;;16.36;64.79;99587.47;4474995;32;33426;-82
2021/05/25 00:07:37;;;;;;;6.68;2.12;;;;;;;16.41;64.55;99590.66;4475628;31;33681;-82
2021/05/25 00:10:05;;;;;;;2.85;1.60;;;;;;;16.29;65.07;99583.53;4487518;31;35272;-82
2021/05/25 00:12:36;;;;;;;3.33;1.97;;;;;;;16.50;64.34;99566.00;4491935;31;33090;-83
2021/05/25 00:15:09;;;;;;;3.28;1.80;;;;;;;16.33;64.85;99569.91;4478729;31;34426;-83
2021/05/25 00:17:37;;;;;;;1.85;1.73;;;;;;;16.22;65.58;99592.91;4474332;31;33309;-83
2021/05/25 00:20:07;;;;;;;3.50;1.98;;;;;;;16.45;64.92;99600.13;4469031;31;31875;-83
2021/05/25 00:22:35;;;;;;;4.22;2.00;;;;;;;16.42;64.87;99591.50;4471748;32;35210;-83
2021/05/25 00:25:06;;;;;;;2.95;1.90;;;;;;;16.20;65.34;99592.19;4473765;31;34615;-83
2021/05/25 00:27:38;;;;;;;4.57;1.67;;;;;;;16.37;64.82;99597.16;4486192;31;33395;-84
2021/05/25 00:30:08;;;;;;;3.17;1.90;;;;;;;16.29;65.32;99602.19;4478263;31;33579;-83
2021/05/25 00:32:36;;;;;;;2.55;2.08;;;;;;;16.30;65.13;99604.75;4477210;31;34691;-83
2021/05/25 00:35:05;;;;;;;4.35;1.60;;;;;;;16.35;64.65;99607.94;4485626;31;33900;-83
2021/05/25 00:37:33;;;;;;;4.68;1.90;;;;;;;16.34;64.88;99602.72;4478356;31;33658;-83
2021/05/25 00:40:04;;;;;;;2.72;1.80;;;;;;;16.43;64.39;99595.88;4473914;31;34059;-83
2021/05/25 00:42:32;;;;;;;4.43;2.70;;;;;;;16.36;64.58;99590.13;4484535;32;33559;-84
2021/05/25 00:45:01;;;;;;;4.75;2.47;;;;;;;16.28;64.97;99590.66;4472425;31;34468;-84
2021/05/25 00:47:30;;;;;;;4.57;2.70;;;;;;;16.21;65.31;99577.91;4486698;31;34044;-83
2021/05/25 00:50:10;;;;;;;3.33;1.50;;;;;;;16.31;65.16;99569.13;4480977;31;34600;-83
2021/05/25 00:52:38;;;;;;;3.95;1.65;;;;;;;16.25;65.34;99584.72;4475679;31;34578;-84
2021/05/25 00:55:07;;;;;;;3.17;1.92;;;;;;;16.37;64.88;99590.00;4485846;31;33882;-83
2021/05/25 00:57:35;;;;;;;2.45;1.48;;;;;;;15.93;66.41;99594.94;4487612;31;33332;-84
2021/05/25 01:00:05;;;;;;;1.58;1.40;;;;;;;16.31;65.08;99545.16;4481240;31;33408;-85
2021/05/25 01:02:34;;;;;;;4.25;2.05;;;;;;;16.24;65.75;99615.84;4479871;31;34774;-85
2021/05/25 01:05:03;;;;;;;3.08;1.50;;;;;;;16.17;65.71;99605.69;4469740;31;35692;-84
2021/05/25 01:07:32;;;;;;;4.72;1.62;;;;;;;16.69;63.95;99580.69;4473806;32;34503;-85
2021/05/25 01:10:00;;;;;;;4.15;1.73;;;;;;;16.78;64.61;99569.38;4471494;31;32830;-85
2021/05/25 01:12:30;;;;;;;2.75;1.95;;;;;;;16.43;65.53;99594.06;4476069;31;33861;-85
2021/05/25 01:15:04;;;;;;;2.20;1.62;;;;;;;16.28;66.49;99595.13;4476975;32;34350;-84
2021/05/25 01:17:32;;;;;;;2.22;1.50;;;;;;;16.21;66.47;99596.53;4489824;31;33563;-83
2021/05/25 01:20:01;;;;;;;3.85;1.42;;;;;;;16.45;65.56;99592.16;4478092;31;34775;-83
2021/05/25 01:22:33;;;;;;;2.03;1.75;;;;;;;16.04;66.48;99611.87;4484810;31;34798;-84
2021/05/25 01:25:08;;;;;;;3.65;1.98;;;;;;;16.25;65.91;99606.03;4484076;32;34225;-83
2021/05/25 01:27:36;;;;;;;2.22;1.50;;;;;;;16.80;64.67;99610.09;4486221;31;33662;-83
2021/05/25 01:30:07;;;;;;;2.37;1.85;;;;;;;16.76;64.11;99613.94;4469576;31;32872;-83
2021/05/25 01:32:35;;;;;;;2.22;1.58;;;;;;;16.58;65.13;99621.44;4475910;31;34690;-83
2021/05/25 01:35:04;;;;;;;3.22;1.83;;;;;;;16.56;65.83;99608.22;4487811;31;34817;-83
2021/05/25 01:37:32;;;;;;;2.67;1.62;;;;;;;16.78;64.51;99577.38;4483628;31;35238;-83
2021/05/25 01:40:00;;;;;;;2.05;1.20;;;;;;;16.91;64.01;99567.53;4484120;32;32957;-85
2021/05/25 01:42:35;;;;;;;3.67;1.30;;;;;;;16.65;64.23;99564.91;4475205;31;33713;-85
2021/05/25 01:45:06;;;;;;;2.92;1.40;;;;;;;16.59;65.08;99573.34;4478720;31;33752;-86
2021/05/25 01:47:34;;;;;;;2.83;1.12;;;;;;;16.51;65.62;99569.53;4465769;31;34820;-86
2021/05/25 01:50:12;;;;;;;1.90;1.48;;;;;;;16.47;65.66;99562.72;4472406;32;33029;-86
2021/05/25 01:52:47;;;;;;;2.58;1.37;;;;;;;16.51;65.24;99567.72;4480533;31;33770;-86
2021/05/25 01:55:36;;;;;;;4.82;1.10;;;;;;;16.31;66.05;99581.63;4493144;31;34580;-85
2021/05/25 01:58:10;;;;;;;2.65;1.25;;;;;;;16.38;65.93;99588.22;4485690;31;33434;-84
2021/05/25 02:00:41;;;;;;;3.45;1.60;;;;;;;16.64;64.81;99581.87;4485028;31;33073;-84
2021/05/25 02:03:09;;;;;;;1.55;1.25;;;;;;;16.53;65.02;99589.78;4481514;31;34193;-84
2021/05/25 02:05:38;;;;;;;1.73;1.30;;;;;;;16.71;64.53;99584.94;4489900;31;34379;-84
2021/05/25 02:08:06;;;;;;;2.33;1.30;;;;;;;16.84;64.11;99596.44;4482093;31;33659;-85
2021/05/25 02:10:38;;;;;;;1.50;1.30;;;;;;;16.82;64.40;99603.72;4474914;32;33130;-85
2021/05/25 02:13:12;;;;;;;1.75;1.23;;;;;;;16.77;64.42;99594.34;4478988;31;34231;-85
2021/05/25 02:15:40;;;;;;;1.60;1.50;;;;;;;17.12;63.78;99592.59;4484875;31;33359;-85
2021/05/25 02:18:17;;;;;;;4.37;1.85;;;;;;;17.03;63.86;99579.94;4475895;31;33163;-85
2021/05/25 02:20:46;;;;;;;2.85;1.42;;;;;;;16.91;63.91;99585.34;4479388;31;33121;-86
2021/05/25 02:23:15;;;;;;;1.87;1.50;;;;;;;16.97;63.77;99580.41;4473623;31;33594;-86
2021/05/25 02:25:43;;;;;;;1.27;1.15;;;;;;;16.81;64.26;99580.69;4485604;31;33519;-82
2021/05/25 02:28:11;;;;;;;4.45;1.67;;;;;;;16.86;64.05;99575.00;4465325;31;32133;-82
2021/05/25 02:30:40;;;;;;;1.85;1.45;;;;;;;16.79;64.62;99571.06;4486257;31;33874;-82
2021/05/25 02:33:10;;;;;;;3.95;1.40;;;;;;;17.02;63.75;99566.72;4472756;31;32088;-82
2021/05/25 02:35:39;;;;;;;3.00;1.33;;;;;;;16.99;63.86;99570.47;4484423;31;34699;-83
2021/05/25 02:38:14;;;;;;;2.20;1.30;;;;;;;16.60;65.11;99575.03;4475430;31;33956;-83
2021/05/25 02:40:45;;;;;;;3.70;1.50;;;;;;;16.80;64.37;99567.44;4485494;31;34193;-83
2021/05/25 02:43:14;;;;;;;5.10;1.60;;;;;;;16.97;63.63;99572.41;4479180;31;35237;-82
2021/05/25 02:45:43;;;;;;;3.70;1.50;;;;;;;16.95;63.88;99584.13;4476910;31;33845;-83
2021/05/25 02:48:10;;;;;;;2.10;1.87;;;;;;;17.21;63.09;99584.88;4474545;31;33276;-83
2021/05/25 02:50:39;;;;;;;4.47;1.48;;;;;;;16.99;64.54;99590.94;4480957;31;34743;-82
2021/05/25 02:53:09;;;;;;;1.83;1.60;;;;;;;17.04;64.50;99588.78;4478123;31;34242;-82
2021/05/25 02:55:38;;;;;;;4.87;1.50;;;;;;;17.37;63.80;99590.78;4479481;31;35014;-83
2021/05/25 02:58:07;;;;;;;5.85;1.70;;;;;;;17.12;64.49;99591.75;4477452;31;34488;-83
2021/05/25 03:00:39;;;;;;;3.35;1.62;;;;;;;16.83;65.49;99586.75;4476349;32;32942;-83
2021/05/25 03:03:08;;;;;;;2.12;1.52;;;;;;;16.78;65.70;99580.91;4476753;31;35502;-85
2021/05/25 03:05:36;;;;;;;2.90;1.40;;;;;;;16.89;65.15;99575.63;4485742;31;32727;-85
2021/05/25 03:08:05;;;;;;;1.85;1.52;;;;;;;16.92;64.90;99566.56;4484632;31;33665;-84
2021/05/25 03:10:36;;;;;;;1.77;1.45;;;;;;;16.93;64.72;99568.25;4483112;32;33316;-84
2021/05/25 03:13:04;;;;;;;2.28;1.37;;;;;;;16.78;65.14;99566.72;4485355;31;33357;-84
2021/05/25 03:15:35;;;;;;;2.55;2.25;;;;;;;16.73;65.17;99561.72;4484139;31;33436;-85
2021/05/25 03:18:04;;;;;;;2.97;1.43;;;;;;;16.70;65.34;99553.06;4474427;31;35192;-84
2021/05/25 03:20:33;;;;;;;4.22;2.00;;;;;;;16.71;65.28;99547.62;4483331;32;33199;-84
2021/05/25 03:23:03;;;;;;;4.07;2.00;;;;;;;16.65;65.46;99551.56;4477864;31;33512;-84
2021/05/25 03:25:31;;;;;;;2.60;1.73;;;;;;;16.76;65.13;99545.50;4485768;31;33741;-84
2021/05/25 03:27:59;;;;;;;2.90;1.98;;;;;;;16.65;65.45;99538.25;4485810;31;33288;-84
2021/05/25 03:30:28;;;;;;;2.00;1.80;;;;;;;16.67;65.46;99540.81;4476524;31;32796;-84
2021/05/25 03:32:57;;;;;;;3.50;1.80;;;;;;;16.64;65.52;99528.53;4480946;31;34180;-84
2021/05/25 03:35:27;;;;;;;3.10;1.90;;;;;;;16.64;65.46;99525.88;4483585;31;33809;-84
2021/05/25 03:37:55;;;;;;;3.33;1.75;;;;;;;16.69;65.34;99538.03;4488511;31;33594;-84
2021/05/25 03:40:25;;;;;;;3.00;2.35;;;;;;;16.41;66.46;99536.50;4474461;31;33521;-84
2021/05/25 03:42:53;;;;;;;5.82;2.90;;;;;;;16.28;66.91;99547.19;4484340;31;34057;-84
2021/05/25 03:45:23;;;;;;;5.57;1.65;;;;;;;16.37;66.73;99549.19;4474118;31;35498;-84
2021/05/25 03:47:52;;;;;;;3.42;2.22;;;;;;;16.73;65.35;99558.19;4476359;31;35736;-84
2021/05/25 03:50:21;;;;;;;4.12;2.50;;;;;;;16.86;65.05;99567.03;4477454;31;33017;-83
2021/05/25 03:52:52;;;;;;;3.55;2.62;;;;;;;16.50;66.34;99581.16;4487371;31;35074;-82
2021/05/25 04:00:44;;;;;;;3.22;2.92;;;;;;;16.83;65.68;99599.22;4487030;31;32943;-81
2021/05/25 04:03:12;;;;;;;11.45;5.40;;;;;;;16.88;65.79;99602.41;4487895;31;33541;-82
2021/05/25 04:05:40;;;;;;;11.75;5.85;;;;;;;16.74;66.30;99589.22;4473391;31;33681;-82
2021/05/25 04:08:09;;;;;;;6.40;4.75;;;;;;;16.52;67.64;99589.87;4479789;31;34163;-82
2021/05/25 04:10:37;;;;;;;7.47;4.20;;;;;;;16.46;68.34;99585.84;4476227;31;31908;-82
2021/05/25 04:13:05;;;;;;;12.15;5.82;;;;;;;16.67;67.93;99585.28;4487788;31;31757;-84
2021/05/25 04:15:37;;;;;;;9.32;5.55;;;;;;;16.80;67.36;99583.44;4489077;31;34418;-83
2021/05/25 04:18:06;;;;;;;13.35;5.95;;;;;;;16.82;67.10;99584.19;4487127;31;33378;-83
2021/05/25 04:20:33;;;;;;;9.77;5.20;;;;;;;16.80;67.01;99589.63;4491469;31;33376;-83
2021/05/25 04:23:01;;;;;;;13.98;6.15;;;;;;;16.79;66.90;99579.94;4479985;31;32331;-83
2021/05/25 04:25:29;;;;;;;9.25;4.57;;;;;;;17.41;64.88;99577.06;4479296;31;34542;-83
2021/05/25 04:27:57;;;;;;;6.03;4.22;;;;;;;17.49;65.04;99586.34;4489193;31;33024;-82
2021/05/25 04:30:24;;;;;;;7.72;4.53;;;;;;;17.58;64.89;99590.97;4480954;31;32313;-83
2021/05/25 04:32:53;;;;;;;7.28;4.30;;;;;;;17.56;65.43;99599.09;4488150;31;33621;-83
2021/05/25 04:35:25;;;;;;;5.68;2.97;;;;;;;17.70;65.36;99607.88;4495561;31;33555;-82
2021/05/25 04:37:55;;;;;;;3.80;3.12;;;;;;;17.84;64.75;99613.03;4481629;31;34597;-84
2021/05/25 04:40:23;;;;;;;5.00;2.70;;;;;;;18.21;63.38;99611.03;4487899;31;31974;-83
2021/05/25 04:42:51;;;;;;;2.58;2.15;;;;;;;18.17;63.68;99604.25;4474190;31;33709;-84
2021/05/25 04:45:19;;;;;;;5.00;1.60;;;;;;;18.23;63.30;99613.59;4477464;31;32837;-83
2021/05/25 04:47:47;;;;;;;3.30;1.60;;;;;;;18.07;62.22;99609.44;4477461;31;33477;-83
2021/05/25 04:50:15;;;;;;;1.87;1.50;;;;;;;18.24;61.92;99615.31;4465490;31;34605;-83
2021/05/25 04:52:43;;;;;;;2.92;1.58;;;;;;;18.47;61.22;99603.66;4488567;31;33261;-84
2021/05/25 04:55:14;;;;;;;2.65;1.23;;;;;;;18.21;60.94;99620.87;4491301;31;34653;-83
2021/05/25 04:57:46;;;;;;;3.78;1.55;;;;;;;18.49;60.58;99611.56;4486345;31;34144;-83
2021/05/25 05:00:16;;;;;;;5.68;1.65;;;;;;;18.67;60.67;99613.59;4477655;31;34147;-84
2021/05/25 05:02:43;;;;;;;2.25;1.55;;;;;;;18.77;60.14;99618.25;4496905;31;34626;-85
2021/05/25 05:05:12;;;;;;;5.32;1.60;;;;;;;18.88;58.90;99615.56;4476708;31;33244;-84
2021/05/25 05:07:41;;;;;;;5.22;2.20;;;;;;;18.88;59.39;99611.03;4485945;31;33320;-84
2021/05/25 05:10:09;;;;;;;4.65;1.83;;;;;;;18.98;59.11;99605.78;4464355;31;35077;-84
2021/05/25 05:12:37;;;;;;;4.22;2.10;;;;;;;18.92;60.19;99612.50;4484263;31;32246;-83
2021/05/25 05:15:06;;;;;;;6.30;2.53;;;;;;;18.74;60.61;99618.47;4486329;31;32984;-83
2021/05/25 05:17:35;;;;;;;3.80;1.90;;;;;;;18.92;61.06;99625.03;4459890;31;33526;-84
2021/05/25 05:20:05;;;;;;;4.05;1.95;;;;;;;19.09;59.92;99627.19;4475188;31;33451;-84
2021/05/25 05:22:33;;;;;;;4.78;1.85;;;;;;;18.71;60.29;99627.63;4461214;31;35635;-84
2021/05/25 05:25:01;;;;;;;5.85;2.00;;;;;;;19.25;58.09;99618.75;4475709;31;33162;-84
2021/05/25 05:27:29;;;;;;;1.62;1.33;;;;;;;18.88;59.49;99628.94;4486313;31;34366;-83
2021/05/25 05:29:57;;;;;;;2.45;1.52;;;;;;;18.79;60.70;99633.19;4471843;31;33223;-83
2021/05/25 05:32:24;;;;;;;2.95;1.73;;;;;;;19.28;59.42;99639.06;4473626;31;33453;-85
2021/05/25 05:34:52;;;;;;;4.68;1.90;;;;;;;19.11;59.00;99643.97;4487824;31;33750;-85
2021/05/25 05:37:20;;;;;;;3.97;1.40;;;;;;;19.38;58.90;99638.19;4474298;31;33326;-82
2021/05/25 05:39:48;;;;;;;4.78;1.90;;;;;;;19.85;57.66;99643.25;4465230;31;32593;-82
2021/05/25 05:42:16;;;;;;;4.43;1.60;;;;;;;19.65;58.10;99643.09;4485712;31;33461;-84
2021/05/25 05:44:44;;;;;;;4.50;1.87;;;;;;;19.99;57.46;99634.00;4474216;31;34643;-85
2021/05/25 05:47:12;;;;;;;4.68;1.75;;;;;;;19.96;56.58;99621.75;4473545;31;34210;-84
2021/05/25 05:49:40;;;;;;;5.80;1.77;;;;;;;19.91;56.64;99621.28;4482657;31;34321;-83
2021/05/25 05:52:08;;;;;;;4.68;1.17;;;;;;;20.07;55.34;99616.31;4470107;31;34310;-84
2021/05/25 05:54:36;;;;;;;2.15;1.58;;;;;;;19.82;57.21;99611.34;4468946;31;33779;-83
2021/05/25 05:57:04;;;;;;;2.83;1.33;;;;;;;19.65;57.24;99629.72;4495154;31;33425;-83
2021/05/25 05:59:32;;;;;;;3.55;1.30;;;;;;;19.60;56.44;99631.91;4494869;31;33079;-84
2021/05/25 06:02:00;;;;;;;2.05;1.17;;;;;;;19.87;56.52;99635.91;4485084;31;33753;-83
2021/05/25 06:04:28;;;;;;;1.37;1.27;;;;;;;20.04;55.99;99647.91;4474115;31;33429;-87
2021/05/25 06:06:56;;;;;;;1.83;1.33;;;;;;;20.25;55.98;99651.41;4475887;31;37571;-84
2021/05/25 06:09:24;;;;;;;3.50;2.45;;;;;;;20.41;55.16;99664.31;4476367;31;34613;-84
2021/05/25 06:11:53;;;;;;;2.95;1.67;;;;;;;20.60;55.22;99661.75;4463520;31;34407;-83
2021/05/25 06:14:21;;;;;;;1.83;1.00;;;;;;;20.68;55.32;99664.63;4487435;31;33576;-83
2021/05/25 06:16:49;;;;;;;2.25;1.62;;;;;;;20.77;55.71;99672.87;4489974;31;33291;-84
2021/05/25 06:19:17;;;;;;;4.93;1.60;;;;;;;20.67;56.01;99670.16;4473232;31;35095;-84
2021/05/25 06:21:44;;;;;;;2.33;1.60;;;;;;;20.52;55.29;99674.16;4466357;31;33576;-84
2021/05/25 06:24:13;;;;;;;2.95;1.48;;;;;;;20.52;55.94;99675.03;4480276;31;34133;-83
2021/05/25 06:26:41;;;;;;;4.95;2.10;;;;;;;20.69;54.21;99685.09;4476322;31;31294;-84
2021/05/25 06:29:09;;;;;;;4.15;2.10;;;;;;;20.50;54.98;99685.00;4465946;31;32828;-84
2021/05/25 06:31:38;;;;;;;5.60;2.70;;;;;;;20.50;55.95;99692.22;4474918;31;34441;-85
2021/05/25 06:34:05;;;;;;;3.90;2.47;;;;;;;20.32;56.75;99692.81;4474545;31;33581;-84
2021/05/25 06:36:33;;;;;;;2.60;2.03;;;;;;;19.88;57.11;99696.56;4480296;31;33203;-84
2021/05/25 06:39:05;;;;;;;3.47;2.30;;;;;;;20.41;56.19;99692.00;4473075;31;33169;-83
2021/05/25 06:41:33;;;;;;;3.05;2.50;;;;;;;19.94;57.48;99693.38;4473666;31;33956;-83
2021/05/25 06:44:01;;;;;;;2.95;2.33;;;;;;;20.27;57.28;99695.03;4468567;31;33185;-83
2021/05/25 06:46:28;;;;;;;4.32;2.10;;;;;;;20.20;57.54;99692.00;4470962;31;32552;-84
2021/05/25 06:48:56;;;;;;;4.53;2.60;;;;;;;20.28;57.50;99702.09;4483027;31;32107;-84
2021/05/25 06:51:26;;;;;;;4.47;2.47;;;;;;;20.55;57.24;99690.81;4481338;31;33026;-84
2021/05/25 06:53:54;;;;;;;2.67;1.98;;;;;;;20.55;56.90;99688.16;4480658;31;34788;-83
2021/05/25 06:56:22;;;;;;;10.98;2.30;;;;;;;20.68;54.87;99696.84;4481361;31;33659;-83
2021/05/25 06:58:50;;;;;;;2.60;1.67;;;;;;;20.45;54.70;99697.94;4479955;31;32933;-84
2021/05/25 07:01:17;;;;;;;3.87;2.03;;;;;;;20.07;55.62;99701.22;4469302;31;35062;-84
2021/05/25 07:03:45;;;;;;;4.70;2.08;;;;;;;20.47;56.18;99693.34;4481492;31;33181;-85
2021/05/25 07:06:13;;;;;;;4.12;1.95;;;;;;;20.74;54.92;99700.81;4470178;31;33970;-84
2021/05/25 07:08:41;;;;;;;2.92;1.77;;;;;;;20.42;55.29;99708.97;4487054;31;32999;-84
2021/05/25 07:11:09;;;;;;;5.28;2.25;;;;;;;20.96;54.75;99707.81;4475404;31;33355;-84
2021/05/25 07:13:37;;;;;;;2.92;2.62;;;;;;;21.14;53.75;99708.88;4474581;31;35214;-84
2021/05/25 07:16:05;;;;;;;6.97;2.58;;;;;;;20.76;54.80;99714.09;4475284;31;33523;-84
2021/05/25 07:18:38;;;;;;;2.22;2.00;;;;;;;20.97;53.81;99717.56;4475907;31;33364;-84
2021/05/25 07:21:06;;;;;;;4.32;2.05;;;;;;;20.88;53.95;99723.75;4473548;31;33368;-84
2021/05/25 07:23:35;;;;;;;4.35;2.22;;;;;;;20.67;54.73;99721.97;4486513;31;33748;-84
2021/05/25 07:26:03;;;;;;;6.75;2.53;;;;;;;21.07;54.51;99722.97;4485268;31;33404;-84
2021/05/25 07:28:31;;;;;;;5.80;2.65;;;;;;;21.06;54.00;99730.19;4474649;31;32766;-84
2021/05/25 07:30:59;;;;;;;4.53;3.30;;;;;;;21.02;54.19;99731.44;4487569;31;33713;-83
2021/05/25 07:33:27;;;;;;;4.72;2.70;;;;;;;20.82;55.97;99729.66;4474032;31;35077;-84
2021/05/25 07:35:55;;;;;;;5.43;3.00;;;;;;;20.59;55.50;99737.88;4477626;31;33572;-83
2021/05/25 07:38:24;;;;;;;7.20;3.85;;;;;;;20.42;56.58;99750.03;4477026;31;33944;-83
2021/05/25 07:40:52;;;;;;;5.45;3.42;;;;;;;20.59;55.89;99745.91;4478672;31;35514;-83
2021/05/25 07:43:19;;;;;;;6.75;3.40;;;;;;;20.06;57.01;99753.97;4490707;31;34694;-83
2021/05/25 07:45:47;;;;;;;5.45;3.50;;;;;;;20.07;57.00;99761.03;4476064;31;33384;-83
2021/05/25 07:48:15;;;;;;;4.47;3.47;;;;;;;19.43;59.07;99761.81;4477142;31;33894;-83
2021/05/25 07:50:43;;;;;;;4.82;3.65;;;;;;;19.84;58.11;99762.94;4488589;31;33389;-83
2021/05/25 07:53:11;;;;;;;5.60;3.75;;;;;;;20.08;57.90;99762.75;4488004;31;33625;-83
2021/05/25 07:55:39;;;;;;;5.18;3.92;;;;;;;20.04;58.28;99761.31;4478632;31;33569;-83
2021/05/25 07:58:07;;;;;;;5.43;3.78;;;;;;;19.91;58.91;99769.50;4476950;31;34785;-83
2021/05/25 08:00:35;;;;;;;7.00;3.28;;;;;;;19.61;59.03;99770.22;4475630;31;31396;-83
2021/05/25 08:03:03;;;;;;;5.57;3.37;;;;;;;19.34;59.80;99772.41;4478149;31;33856;-83
2021/05/25 08:05:32;;;;;;;7.05;3.67;;;;;;;19.74;58.85;99779.91;4474418;31;34424;-83
2021/05/25 08:08:02;;;;;;;3.78;2.83;;;;;;;19.61;58.58;99780.94;4477951;31;32763;-83
2021/05/25 08:10:31;;;;;;;6.47;3.25;;;;;;;19.64;59.06;99791.38;4487546;31;33718;-83
2021/05/25 08:12:58;;;;;;;8.48;3.25;;;;;;;19.60;58.79;99789.06;4475798;31;33782;-83
2021/05/25 08:15:28;;;;;;;5.00;3.28;;;;;;;19.80;58.38;99796.34;4486142;31;33605;-83
2021/05/25 08:18:04;;;;;;;5.43;3.25;;;;;;;19.82;57.12;99809.63;4486891;31;33103;-83
2021/05/25 08:20:34;;;;;;;4.53;3.42;;;;;;;19.57;57.89;99803.56;4477457;31;35505;-83
2021/05/25 08:23:22;;;;;;;3.80;3.28;;;;;;;18.96;59.87;99819.13;4479693;31;33944;-83
2021/05/25 08:25:50;;;;;;;3.53;3.20;;;;;;;18.87;59.54;99825.19;4485475;31;33756;-84
2021/05/25 08:28:17;;;;;;;6.50;3.70;;;;;;;19.22;58.72;99827.78;4487901;31;33846;-83
2021/05/25 08:30:45;;;;;;;3.58;3.25;;;;;;;19.08;58.75;99838.72;4475299;31;32255;-83
2021/05/25 08:33:15;;;;;;;3.62;3.33;;;;;;;18.82;59.34;99852.31;4478901;31;34503;-83
2021/05/25 08:35:45;;;;;;;3.97;3.50;;;;;;;18.91;59.19;99840.91;4473014;31;34543;-83
2021/05/25 08:38:15;;;;;;;4.03;3.58;;;;;;;18.99;58.70;99832.28;4476266;31;34207;-83
2021/05/25 08:40:44;;;;;;;4.00;3.33;;;;;;;18.99;59.55;99847.47;4477562;31;35911;-84
2021/05/25 08:43:12;;;;;;;5.62;2.85;;;;;;;18.90;59.69;99849.91;4478565;31;34500;-83
2021/05/25 08:45:40;;;;;;;4.28;2.78;;;;;;;19.10;59.19;99839.47;4484078;31;34083;-83
2021/05/25 08:48:09;;;;;;;2.25;2.05;;;;;;;18.93;58.88;99838.09;4477327;31;33249;-83
2021/05/25 08:50:52;;;;;;;5.60;2.17;;;;;;;19.01;59.00;99843.72;4476525;31;33701;-83
2021/05/25 08:53:20;;;;;;;3.50;2.00;;;;;;;18.92;58.22;99850.63;4492296;31;34815;-83
2021/05/25 08:55:51;;;;;;;2.75;1.77;;;;;;;19.17;57.73;99851.38;4476062;31;34929;-83
2021/05/25 08:58:21;;;;;;;4.05;2.12;;;;;;;18.98;57.67;99861.81;4476417;31;32840;-83
2021/05/25 09:00:51;;;;;;;2.37;1.60;;;;;;;19.07;57.49;99850.41;4462842;31;35085;-83
2021/05/25 09:03:20;;;;;;;1.70;1.40;;;;;;;18.93;57.23;99860.34;4472826;31;36072;-83
2021/05/25 09:05:55;;;;;;;1.77;1.55;;;;;;;19.09;56.78;99861.84;4483512;31;34521;-83
2021/05/25 09:08:23;;;;;;;6.05;1.80;;;;;;;18.75;58.46;99869.78;4483002;31;33731;-83
2021/05/25 09:10:51;;;;;;;2.22;1.70;;;;;;;18.40;59.19;99867.94;4477382;31;34654;-83
2021/05/25 09:13:23;;;;;;;3.95;1.48;;;;;;;18.61;57.39;99876.19;4480997;31;35343;-83
2021/05/25 09:15:52;;;;;;;;;;;;;;;18.79;57.42;99873.09;4493559;31;34263;-83
2021/05/25 09:18:26;;;;;;;3.72;1.80;;;;;;;18.51;58.54;99877.81;4490368;31;32705;-83
2021/05/25 09:21:01;;;;;;;5.68;1.60;;;;;;;18.81;57.38;99868.50;4477081;31;34921;-83
2021/05/25 09:23:32;;;;;;;1.55;1.40;;;;;;;18.55;58.54;99881.13;4476155;31;33661;-83
2021/05/25 09:29:07;;;;;;;1.87;1.33;;;;;;;18.54;58.52;99874.06;4487883;31;32948;-83
2021/05/25 09:31:35;;;;;;;1.73;1.40;;;;;;;18.83;58.33;99863.84;4473100;31;35061;-83
2021/05/25 09:34:20;;;;;;;3.47;1.40;;;;;;;18.64;58.13;99872.41;4490438;31;33513;-83
2021/05/25 09:37:01;;;;;;;2.03;1.25;;;;;;;18.74;58.06;99869.91;4481035;31;34455;-83
2021/05/25 09:39:45;;;;;;;3.22;1.27;;;;;;;18.91;57.62;99872.16;4493646;31;33281;-83
2021/05/25 09:42:14;;;;;;;1.70;1.60;;;;;;;18.73;58.15;99878.91;4487834;31;33730;-83
2021/05/25 09:45:06;;;;;;;2.08;1.70;;;;;;;18.58;59.14;99876.41;4461914;31;34812;-83
2021/05/25 09:47:52;;;;;;;2.17;1.33;;;;;;;18.63;58.80;99868.88;4474952;31;33488;-83
2021/05/25 09:50:23;;;;;;;3.10;1.20;;;;;;;18.83;58.25;99872.72;4487196;31;30834;-83
2021/05/25 09:53:11;;;;;;;2.00;1.40;;;;;;;18.87;58.15;99879.56;4473960;31;33993;-84
2021/05/25 09:55:51;;;;;;;3.47;2.40;;;;;;;19.01;58.15;99878.50;4474360;31;34090;-84
2021/05/25 09:58:23;;;;;;;3.03;1.35;;;;;;;18.97;57.67;99885.06;4478403;31;33821;-84
2021/05/25 10:00:52;;;;;;;1.42;1.20;;;;;;;18.80;59.04;99890.84;4487091;31;34184;-84
2021/05/25 10:03:22;;;;;;;1.15;1.02;;;;;;;18.28;61.14;99895.59;4477928;31;32661;-84
2021/05/25 10:05:51;;;;;;;1.73;1.00;;;;;;;18.55;58.88;99898.00;4460459;31;35685;-84
2021/05/25 10:08:22;;;;;;;1.48;1.10;;;;;;;18.37;59.35;99904.72;4475384;31;35257;-84
2021/05/25 10:10:53;;;;;;;1.10;1.00;;;;;;;18.14;58.80;99909.97;4486435;31;33633;-84
2021/05/25 10:13:25;;;;;;;2.92;1.10;;;;;;;18.06;59.29;99907.00;4487168;31;31339;-84
2021/05/25 10:15:53;;;;;;;;;;;;;;;17.64;60.42;99916.25;4473728;31;33649;-84
2021/05/25 10:21:03;;;;;;;3.00;1.08;;;;;;;17.78;60.00;99909.97;4486019;31;33707;-84
2021/05/25 10:23:34;;;;;;;2.35;0.98;;;;;;;17.97;59.42;99907.66;4474236;31;33974;-84
2021/05/25 10:26:05;;;;;;;0.98;0.82;;;;;;;17.70;60.80;99912.28;4473013;31;35967;-84
2021/05/25 10:28:33;;;;;;;3.28;0.85;;;;;;;17.87;59.37;99911.97;4487305;31;33591;-84
2021/05/25 10:31:02;;;;;;;2.22;1.15;;;;;;;17.97;59.80;99913.00;4475120;31;33619;-84
2021/05/25 10:33:30;;;;;;;3.25;1.27;;;;;;;18.10;59.87;99905.81;4484783;31;33606;-84
2021/05/25 10:36:01;;;;;;;2.90;1.58;;;;;;;18.05;59.88;99899.12;4474576;31;33916;-84
2021/05/25 10:38:34;;;;;;;5.18;2.08;;;;;;;18.32;59.87;99906.91;4472157;31;33118;-84
2021/05/25 10:41:04;;;;;;;1.17;0.75;;;;;;;18.30;58.53;99908.84;4471593;31;32434;-85
2021/05/25 10:43:39;;;;;;;3.45;1.10;;;;;;;18.24;58.78;99898.62;4482018;31;33443;-84
2021/05/25 10:46:11;;;;;;;2.75;1.17;;;;;;;18.37;59.31;99907.41;4484041;31;33121;-85
2021/05/25 10:49:25;;;;;;;5.20;0.97;;;;;;;18.33;58.79;99908.63;4484603;31;33515;-84
2021/05/25 10:52:06;;;;;;;1.83;0.70;;;;;;;18.67;57.53;99902.44;4470812;31;33728;-84
2021/05/25 10:54:48;;;;;;;0.65;0.50;;;;;;;18.58;56.14;99897.78;4484053;31;34511;-84
2021/05/25 10:57:48;;;;;;;2.17;1.10;;;;;;;18.55;55.60;99919.41;4470862;31;34928;-85
2021/05/25 11:00:18;;;;;;;3.25;1.33;;;;;;;18.82;55.19;99926.38;4472440;31;33310;-84
2021/05/25 11:02:47;;;;;;;0.77;0.77;;;;;;;18.65;55.51;99920.41;4469355;31;34616;-84
2021/05/25 11:05:27;;;;;;;1.02;0.70;;;;;;;18.52;55.48;99930.34;4469862;31;35588;-84
2021/05/25 11:07:55;;;;;;;2.20;0.80;;;;;;;18.30;56.65;99931.06;4470169;31;33858;-84
2021/05/25 11:10:26;;;;;;;2.65;1.08;;;;;;;18.07;55.88;99927.41;4484557;31;32899;-84
2021/05/25 11:13:17;;;;;;;1.50;1.00;;;;;;;18.26;55.78;99928.75;4486653;31;34138;-83
2021/05/25 11:16:24;;;;;;;0.80;0.70;;;;;;;18.10;55.94;99932.53;4485325;31;33393;-83
2021/05/25 11:19:10;;;;;;;1.65;0.80;;;;;;;18.31;56.47;99935.44;4484932;31;32871;-83
2021/05/25 11:24:32;;;;;;;2.35;0.90;;;;;;;18.13;55.61;99947.47;4487732;31;31789;-83
2021/05/25 11:27:01;;;;;;;1.10;0.68;;;;;;;18.24;55.74;99952.91;4485742;31;32955;-83
2021/05/25 11:29:49;;;;;;;0.90;0.62;;;;;;;18.01;55.99;99946.56;4486147;31;34615;-83
2021/05/25 11:32:38;;;;;;;1.12;0.73;;;;;;;18.34;55.32;99937.06;4484137;31;34626;-83
2021/05/25 11:35:09;;;;;;;1.48;0.57;;;;;;;18.52;55.32;99935.69;4462898;31;35575;-82
2021/05/25 11:37:43;;;;;;;1.20;0.70;;;;;;;18.66;54.39;99929.31;4481610;31;33678;-83
2021/05/25 11:40:16;;;;;;;2.10;0.95;;;;;;;18.99;54.60;99931.28;4472596;31;30710;-82
2021/05/25 11:42:45;;;;;;;0.77;0.60;;;;;;;18.74;57.45;99924.25;4485967;31;31877;-84
2021/05/25 11:45:15;;;;;;;2.15;0.50;;;;;;;19.30;54.98;99936.94;4485106;31;31236;-84
2021/05/25 11:47:43;;;;;;;0.75;0.40;;;;;;;19.55;53.65;99931.38;4470878;31;33557;-84
2021/05/25 11:50:11;;;;;;;1.25;0.40;;;;;;;19.91;53.79;99937.50;4474907;31;34369;-84
2021/05/25 11:53:00;;;;;;;1.55;0.50;;;;;;;20.21;53.80;99926.09;4486439;31;33049;-84
2021/05/25 11:55:29;;;;;;;1.00;0.62;;;;;;;20.54;51.21;99929.69;4486138;31;30107;-83
2021/05/25 11:57:58;;;;;;;0.75;0.60;;;;;;;20.37;51.84;99937.28;4484321;31;35340;-83
2021/05/25 12:00:28;;;;;;;0.73;0.30;;;;;;;20.38;50.70;99946.19;4460574;31;33951;-83
2021/05/25 12:02:58;;;;;;;3.70;0.60;;;;;;;20.06;48.40;99944.28;4484868;31;34166;-83